sensor_id;sensor_type;location;lat;lon;timestamp;P1;durP1;ratioP1;P2;durP2;ratioP2
11960;SDS011;6040;49.358;11.140;2023-01-10T00:02:26;3.17;;;1.50;;
11960;SDS011;6040;49.358;11.140;2023-01-10T00:04:53;1.97;;;1.73;;
11960;SDS011;6040;49.358;11.140;2023-01-10T00:07:20;3.20;;;1.70;;
11960;SDS011;6040;49.358;11.140;2023-01-10T00:09:47;2.57;;;1.50;;
11960;SDS011;6040;49.358;11.140;2023-01-10T00:12:14;4.70;;;1.57;;
11960;SDS011;6040;49.358;11.140;2023-01-10T00:14:58;3.30;;;1.63;;
11960;SDS011;6040;49.358;11.140;2023-01-10T00:17:25;1.77;;;1.50;;
11960;SDS011;6040;49.358;11.140;2023-01-10T00:19:53;5.73;;;1.57;;
11960;SDS011;6040;49.358;11.140;2023-01-10T00:22:19;4.87;;;1.80;;
11960;SDS011;6040;49.358;11.140;2023-01-10T00:24:49;4.87;;;2.00;;
11960;SDS011;6040;49.358;11.140;2023-01-10T00:27:16;4.20;;;1.90;;
11960;SDS011;6040;49.358;11.140;2023-01-10T00:29:46;2.77;;;1.67;;
11960;SDS011;6040;49.358;11.140;2023-01-10T00:32:16;1.70;;;1.60;;
11960;SDS011;6040;49.358;11.140;2023-01-10T00:34:44;2.37;;;1.90;;
11960;SDS011;6040;49.358;11.140;2023-01-10T00:37:11;2.27;;;1.97;;
11960;SDS011;6040;49.358;11.140;2023-01-10T00:39:38;3.60;;;2.00;;
11960;SDS011;6040;49.358;11.140;2023-01-10T00:42:05;4.37;;;2.00;;
11960;SDS011;6040;49.358;11.140;2023-01-10T00:45:04;2.07;;;1.87;;
11960;SDS011;6040;49.358;11.140;2023-01-10T00:47:31;2.90;;;2.00;;
11960;SDS011;6040;49.358;11.140;2023-01-10T00:49:59;2.57;;;2.17;;
11960;SDS011;6040;49.358;11.140;2023-01-10T00:52:26;3.30;;;1.90;;
11960;SDS011;6040;49.358;11.140;2023-01-10T00:54:53;2.23;;;1.90;;
11960;SDS011;6040;49.358;11.140;2023-01-10T00:57:20;2.87;;;2.07;;
11960;SDS011;6040;49.358;11.140;2023-01-10T00:59:47;2.17;;;1.90;;
11960;SDS011;6040;49.358;11.140;2023-01-10T01:02:13;3.37;;;2.07;;
11960;SDS011;6040;49.358;11.140;2023-01-10T01:04:40;3.03;;;2.10;;
11960;SDS011;6040;49.358;11.140;2023-01-10T01:07:08;2.87;;;2.03;;
11960;SDS011;6040;49.358;11.140;2023-01-10T01:09:35;10.43;;;2.53;;
11960;SDS011;6040;49.358;11.140;2023-01-10T01:12:22;2.80;;;2.20;;
11960;SDS011;6040;49.358;11.140;2023-01-10T01:14:49;5.03;;;2.27;;
11960;SDS011;6040;49.358;11.140;2023-01-10T01:17:16;7.20;;;2.53;;
11960;SDS011;6040;49.358;11.140;2023-01-10T01:19:43;3.40;;;2.10;;
11960;SDS011;6040;49.358;11.140;2023-01-10T01:22:11;2.27;;;2.07;;
11960;SDS011;6040;49.358;11.140;2023-01-10T01:24:38;2.40;;;2.17;;
11960;SDS011;6040;49.358;11.140;2023-01-10T01:27:06;3.90;;;2.50;;
11960;SDS011;6040;49.358;11.140;2023-01-10T01:29:33;2.77;;;2.20;;
11960;SDS011;6040;49.358;11.140;2023-01-10T01:32:00;3.80;;;2.43;;
11960;SDS011;6040;49.358;11.140;2023-01-10T01:34:27;4.20;;;2.57;;
11960;SDS011;6040;49.358;11.140;2023-01-10T01:36:54;2.73;;;2.43;;
11960;SDS011;6040;49.358;11.140;2023-01-10T01:39:22;3.17;;;2.30;;
11960;SDS011;6040;49.358;11.140;2023-01-10T01:41:49;4.87;;;2.43;;
11960;SDS011;6040;49.358;11.140;2023-01-10T01:44:22;3.00;;;2.57;;
11960;SDS011;6040;49.358;11.140;2023-01-10T01:46:55;3.27;;;2.37;;
11960;SDS011;6040;49.358;11.140;2023-01-10T01:49:27;2.70;;;2.33;;
11960;SDS011;6040;49.358;11.140;2023-01-10T01:51:57;4.50;;;2.60;;
11960;SDS011;6040;49.358;11.140;2023-01-10T01:54:28;2.77;;;2.20;;
11960;SDS011;6040;49.358;11.140;2023-01-10T01:56:57;2.17;;;2.07;;
11960;SDS011;6040;49.358;11.140;2023-01-10T01:59:28;2.47;;;2.20;;
11960;SDS011;6040;49.358;11.140;2023-01-10T02:01:59;2.40;;;2.20;;
11960;SDS011;6040;49.358;11.140;2023-01-10T02:04:30;2.13;;;1.93;;
11960;SDS011;6040;49.358;11.140;2023-01-10T02:07:04;2.63;;;2.00;;
11960;SDS011;6040;49.358;11.140;2023-01-10T02:09:33;2.57;;;2.37;;
11960;SDS011;6040;49.358;11.140;2023-01-10T02:12:05;2.73;;;2.50;;
11960;SDS011;6040;49.358;11.140;2023-01-10T02:14:33;2.23;;;2.03;;
11960;SDS011;6040;49.358;11.140;2023-01-10T02:17:01;2.20;;;2.00;;
11960;SDS011;6040;49.358;11.140;2023-01-10T02:19:28;2.60;;;2.40;;
11960;SDS011;6040;49.358;11.140;2023-01-10T02:22:11;3.03;;;1.90;;
11960;SDS011;6040;49.358;11.140;2023-01-10T02:28:32;2.27;;;2.03;;
11960;SDS011;6040;49.358;11.140;2023-01-10T02:31:23;2.40;;;2.10;;
11960;SDS011;6040;49.358;11.140;2023-01-10T02:34:03;2.30;;;2.10;;
11960;SDS011;6040;49.358;11.140;2023-01-10T02:36:37;2.33;;;2.17;;
11960;SDS011;6040;49.358;11.140;2023-01-10T02:39:15;2.27;;;2.07;;
11960;SDS011;6040;49.358;11.140;2023-01-10T02:41:47;2.23;;;2.03;;
11960;SDS011;6040;49.358;11.140;2023-01-10T02:44:23;2.17;;;2.00;;
11960;SDS011;6040;49.358;11.140;2023-01-10T02:46:56;2.43;;;2.23;;
11960;SDS011;6040;49.358;11.140;2023-01-10T02:49:24;3.03;;;2.07;;
11960;SDS011;6040;49.358;11.140;2023-01-10T02:51:51;6.13;;;2.10;;
11960;SDS011;6040;49.358;11.140;2023-01-10T02:54:19;2.97;;;2.37;;
11960;SDS011;6040;49.358;11.140;2023-01-10T02:56:54;3.53;;;2.37;;
11960;SDS011;6040;49.358;11.140;2023-01-10T02:59:41;3.50;;;2.47;;
11960;SDS011;6040;49.358;11.140;2023-01-10T03:02:32;2.63;;;2.30;;
11960;SDS011;6040;49.358;11.140;2023-01-10T03:05:21;2.93;;;2.57;;
11960;SDS011;6040;49.358;11.140;2023-01-10T03:08:00;2.70;;;2.50;;
11960;SDS011;6040;49.358;11.140;2023-01-10T03:10:36;2.77;;;2.20;;
11960;SDS011;6040;49.358;11.140;2023-01-10T03:13:07;2.63;;;2.17;;
11960;SDS011;6040;49.358;11.140;2023-01-10T03:15:38;3.07;;;2.67;;
11960;SDS011;6040;49.358;11.140;2023-01-10T03:18:07;4.50;;;2.57;;
11960;SDS011;6040;49.358;11.140;2023-01-10T03:20:41;3.10;;;2.80;;
11960;SDS011;6040;49.358;11.140;2023-01-10T03:23:11;3.33;;;3.03;;
11960;SDS011;6040;49.358;11.140;2023-01-10T03:25:41;3.47;;;2.73;;
11960;SDS011;6040;49.358;11.140;2023-01-10T03:28:11;4.50;;;3.03;;
11960;SDS011;6040;49.358;11.140;2023-01-10T03:30:43;3.23;;;2.90;;
11960;SDS011;6040;49.358;11.140;2023-01-10T03:33:16;4.23;;;2.93;;
11960;SDS011;6040;49.358;11.140;2023-01-10T03:35:49;3.50;;;3.03;;
11960;SDS011;6040;49.358;11.140;2023-01-10T03:38:27;3.33;;;2.63;;
11960;SDS011;6040;49.358;11.140;2023-01-10T03:41:01;3.00;;;2.70;;
11960;SDS011;6040;49.358;11.140;2023-01-10T03:43:36;4.17;;;3.00;;
11960;SDS011;6040;49.358;11.140;2023-01-10T03:46:26;4.17;;;2.90;;
11960;SDS011;6040;49.358;11.140;2023-01-10T03:48:59;3.60;;;2.93;;
11960;SDS011;6040;49.358;11.140;2023-01-10T03:51:30;3.80;;;3.00;;
11960;SDS011;6040;49.358;11.140;2023-01-10T03:53:58;3.83;;;3.00;;
11960;SDS011;6040;49.358;11.140;2023-01-10T03:56:25;3.80;;;2.90;;
11960;SDS011;6040;49.358;11.140;2023-01-10T03:58:52;3.60;;;3.30;;
11960;SDS011;6040;49.358;11.140;2023-01-10T04:01:19;4.07;;;3.30;;
11960;SDS011;6040;49.358;11.140;2023-01-10T04:03:46;3.63;;;3.30;;
11960;SDS011;6040;49.358;11.140;2023-01-10T04:06:13;5.20;;;3.30;;
11960;SDS011;6040;49.358;11.140;2023-01-10T04:08:42;3.20;;;2.90;;
11960;SDS011;6040;49.358;11.140;2023-01-10T04:11:09;4.57;;;3.30;;
11960;SDS011;6040;49.358;11.140;2023-01-10T04:13:36;5.77;;;3.73;;
11960;SDS011;6040;49.358;11.140;2023-01-10T04:16:06;4.00;;;3.43;;
11960;SDS011;6040;49.358;11.140;2023-01-10T04:18:33;3.77;;;3.33;;
11960;SDS011;6040;49.358;11.140;2023-01-10T04:21:00;4.00;;;3.50;;
11960;SDS011;6040;49.358;11.140;2023-01-10T04:23:26;5.73;;;3.63;;
11960;SDS011;6040;49.358;11.140;2023-01-10T04:25:55;4.30;;;3.90;;
11960;SDS011;6040;49.358;11.140;2023-01-10T04:28:22;5.40;;;3.80;;
11960;SDS011;6040;49.358;11.140;2023-01-10T04:30:48;4.80;;;3.83;;
11960;SDS011;6040;49.358;11.140;2023-01-10T04:33:15;4.70;;;4.00;;
11960;SDS011;6040;49.358;11.140;2023-01-10T04:35:45;5.77;;;3.87;;
11960;SDS011;6040;49.358;11.140;2023-01-10T04:38:13;6.10;;;3.80;;
11960;SDS011;6040;49.358;11.140;2023-01-10T04:40:40;5.83;;;3.73;;
11960;SDS011;6040;49.358;11.140;2023-01-10T04:43:08;6.37;;;4.23;;
11960;SDS011;6040;49.358;11.140;2023-01-10T04:45:35;5.70;;;4.63;;
11960;SDS011;6040;49.358;11.140;2023-01-10T04:48:03;6.63;;;4.50;;
11960;SDS011;6040;49.358;11.140;2023-01-10T04:50:30;5.67;;;4.40;;
11960;SDS011;6040;49.358;11.140;2023-01-10T04:52:57;4.80;;;4.30;;
11960;SDS011;6040;49.358;11.140;2023-01-10T04:55:24;4.27;;;3.77;;
11960;SDS011;6040;49.358;11.140;2023-01-10T04:57:51;7.50;;;3.97;;
11960;SDS011;6040;49.358;11.140;2023-01-10T05:00:19;6.93;;;4.20;;
11960;SDS011;6040;49.358;11.140;2023-01-10T05:02:46;4.53;;;4.03;;
11960;SDS011;6040;49.358;11.140;2023-01-10T05:05:13;6.10;;;4.00;;
11960;SDS011;6040;49.358;11.140;2023-01-10T05:07:40;5.13;;;4.33;;
11960;SDS011;6040;49.358;11.140;2023-01-10T05:10:07;5.43;;;4.03;;
11960;SDS011;6040;49.358;11.140;2023-01-10T05:12:35;7.37;;;4.13;;
11960;SDS011;6040;49.358;11.140;2023-01-10T05:15:02;7.00;;;4.07;;
11960;SDS011;6040;49.358;11.140;2023-01-10T05:17:30;6.13;;;3.60;;
11960;SDS011;6040;49.358;11.140;2023-01-10T05:19:58;4.20;;;3.77;;
11960;SDS011;6040;49.358;11.140;2023-01-10T05:22:24;5.77;;;3.40;;
11960;SDS011;6040;49.358;11.140;2023-01-10T05:24:51;4.07;;;3.67;;
11960;SDS011;6040;49.358;11.140;2023-01-10T05:27:18;5.70;;;4.07;;
11960;SDS011;6040;49.358;11.140;2023-01-10T05:29:45;4.27;;;3.87;;
11960;SDS011;6040;49.358;11.140;2023-01-10T05:32:12;6.07;;;4.13;;
11960;SDS011;6040;49.358;11.140;2023-01-10T05:34:40;8.80;;;4.50;;
11960;SDS011;6040;49.358;11.140;2023-01-10T05:37:06;6.87;;;3.93;;
11960;SDS011;6040;49.358;11.140;2023-01-10T05:39:33;5.67;;;4.30;;
11960;SDS011;6040;49.358;11.140;2023-01-10T05:42:00;7.47;;;4.10;;
11960;SDS011;6040;49.358;11.140;2023-01-10T05:44:29;7.60;;;4.40;;
11960;SDS011;6040;49.358;11.140;2023-01-10T05:46:56;4.77;;;4.03;;
11960;SDS011;6040;49.358;11.140;2023-01-10T05:49:25;5.93;;;4.17;;
11960;SDS011;6040;49.358;11.140;2023-01-10T05:51:53;4.23;;;3.83;;
11960;SDS011;6040;49.358;11.140;2023-01-10T05:54:20;5.30;;;3.87;;
11960;SDS011;6040;49.358;11.140;2023-01-10T05:56:47;4.90;;;3.97;;
11960;SDS011;6040;49.358;11.140;2023-01-10T05:59:13;5.87;;;4.10;;
11960;SDS011;6040;49.358;11.140;2023-01-10T06:01:40;7.47;;;4.33;;
11960;SDS011;6040;49.358;11.140;2023-01-10T06:04:07;4.20;;;3.80;;
11960;SDS011;6040;49.358;11.140;2023-01-10T06:06:34;6.03;;;3.80;;
11960;SDS011;6040;49.358;11.140;2023-01-10T06:09:02;10.23;;;4.10;;
11960;SDS011;6040;49.358;11.140;2023-01-10T06:11:29;6.83;;;4.10;;
11960;SDS011;6040;49.358;11.140;2023-01-10T06:14:00;7.23;;;3.90;;
11960;SDS011;6040;49.358;11.140;2023-01-10T06:16:27;5.80;;;4.20;;
11960;SDS011;6040;49.358;11.140;2023-01-10T06:18:54;9.47;;;4.50;;
11960;SDS011;6040;49.358;11.140;2023-01-10T06:21:21;5.73;;;4.20;;
11960;SDS011;6040;49.358;11.140;2023-01-10T06:23:47;10.37;;;4.37;;
11960;SDS011;6040;49.358;11.140;2023-01-10T06:26:16;4.97;;;4.20;;
11960;SDS011;6040;49.358;11.140;2023-01-10T06:28:43;4.43;;;3.97;;
11960;SDS011;6040;49.358;11.140;2023-01-10T06:31:10;6.63;;;4.23;;
11960;SDS011;6040;49.358;11.140;2023-01-10T06:33:38;6.53;;;4.37;;
11960;SDS011;6040;49.358;11.140;2023-01-10T06:36:05;6.77;;;4.20;;
11960;SDS011;6040;49.358;11.140;2023-01-10T06:38:33;6.40;;;4.37;;
11960;SDS011;6040;49.358;11.140;2023-01-10T06:40:59;8.43;;;4.23;;
11960;SDS011;6040;49.358;11.140;2023-01-10T06:43:38;4.97;;;4.03;;
11960;SDS011;6040;49.358;11.140;2023-01-10T06:46:05;4.53;;;3.87;;
11960;SDS011;6040;49.358;11.140;2023-01-10T06:48:33;5.40;;;3.77;;
11960;SDS011;6040;49.358;11.140;2023-01-10T06:51:00;10.93;;;3.83;;
11960;SDS011;6040;49.358;11.140;2023-01-10T06:53:27;6.50;;;4.10;;
11960;SDS011;6040;49.358;11.140;2023-01-10T06:55:54;4.33;;;3.70;;
11960;SDS011;6040;49.358;11.140;2023-01-10T06:58:22;5.67;;;3.70;;
11960;SDS011;6040;49.358;11.140;2023-01-10T07:00:50;7.83;;;4.03;;
11960;SDS011;6040;49.358;11.140;2023-01-10T07:03:17;7.27;;;3.70;;
11960;SDS011;6040;49.358;11.140;2023-01-10T07:05:44;7.93;;;3.53;;
11960;SDS011;6040;49.358;11.140;2023-01-10T07:08:11;6.60;;;3.77;;
11960;SDS011;6040;49.358;11.140;2023-01-10T07:10:38;4.97;;;3.20;;
11960;SDS011;6040;49.358;11.140;2023-01-10T07:13:05;4.27;;;3.20;;
11960;SDS011;6040;49.358;11.140;2023-01-10T07:15:33;4.67;;;3.53;;
11960;SDS011;6040;49.358;11.140;2023-01-10T07:18:01;8.57;;;3.60;;
11960;SDS011;6040;49.358;11.140;2023-01-10T07:20:28;5.47;;;3.50;;
11960;SDS011;6040;49.358;11.140;2023-01-10T07:22:55;6.63;;;3.30;;
11960;SDS011;6040;49.358;11.140;2023-01-10T07:25:22;7.43;;;3.23;;
11960;SDS011;6040;49.358;11.140;2023-01-10T07:27:50;5.03;;;3.50;;
11960;SDS011;6040;49.358;11.140;2023-01-10T07:30:19;6.70;;;2.90;;
11960;SDS011;6040;49.358;11.140;2023-01-10T07:32:51;6.33;;;3.10;;
11960;SDS011;6040;49.358;11.140;2023-01-10T07:35:20;6.53;;;3.00;;
11960;SDS011;6040;49.358;11.140;2023-01-10T07:37:47;7.70;;;3.10;;
11960;SDS011;6040;49.358;11.140;2023-01-10T07:40:13;5.57;;;2.93;;
11960;SDS011;6040;49.358;11.140;2023-01-10T07:42:40;5.57;;;3.10;;
11960;SDS011;6040;49.358;11.140;2023-01-10T07:45:07;8.87;;;2.93;;
11960;SDS011;6040;49.358;11.140;2023-01-10T07:47:35;4.90;;;2.37;;
11960;SDS011;6040;49.358;11.140;2023-01-10T07:50:02;7.60;;;3.17;;
11960;SDS011;6040;49.358;11.140;2023-01-10T07:52:31;4.30;;;2.83;;
11960;SDS011;6040;49.358;11.140;2023-01-10T07:54:58;6.67;;;2.87;;
11960;SDS011;6040;49.358;11.140;2023-01-10T07:57:24;5.83;;;2.80;;
11960;SDS011;6040;49.358;11.140;2023-01-10T07:59:51;3.30;;;2.40;;
11960;SDS011;6040;49.358;11.140;2023-01-10T08:02:18;6.77;;;3.07;;
11960;SDS011;6040;49.358;11.140;2023-01-10T08:04:45;4.10;;;2.63;;
11960;SDS011;6040;49.358;11.140;2023-01-10T08:07:11;4.20;;;2.30;;
11960;SDS011;6040;49.358;11.140;2023-01-10T08:09:40;6.00;;;2.63;;
11960;SDS011;6040;49.358;11.140;2023-01-10T08:12:06;6.33;;;2.77;;
11960;SDS011;6040;49.358;11.140;2023-01-10T08:14:33;5.20;;;2.30;;
11960;SDS011;6040;49.358;11.140;2023-01-10T08:17:00;9.70;;;2.20;;
11960;SDS011;6040;49.358;11.140;2023-01-10T08:19:27;7.03;;;2.37;;
11960;SDS011;6040;49.358;11.140;2023-01-10T08:21:54;5.53;;;2.40;;
11960;SDS011;6040;49.358;11.140;2023-01-10T08:24:20;4.30;;;2.17;;
11960;SDS011;6040;49.358;11.140;2023-01-10T08:26:49;7.23;;;2.60;;
11960;SDS011;6040;49.358;11.140;2023-01-10T08:29:15;8.17;;;2.70;;
11960;SDS011;6040;49.358;11.140;2023-01-10T08:31:42;8.37;;;2.13;;
11960;SDS011;6040;49.358;11.140;2023-01-10T08:34:11;7.07;;;2.60;;
11960;SDS011;6040;49.358;11.140;2023-01-10T08:36:38;10.70;;;2.50;;
11960;SDS011;6040;49.358;11.140;2023-01-10T08:39:05;5.23;;;2.80;;
11960;SDS011;6040;49.358;11.140;2023-01-10T08:41:31;3.40;;;2.00;;
11960;SDS011;6040;49.358;11.140;2023-01-10T08:44:00;5.83;;;2.23;;
11960;SDS011;6040;49.358;11.140;2023-01-10T08:46:26;5.27;;;2.40;;
11960;SDS011;6040;49.358;11.140;2023-01-10T08:48:53;5.73;;;2.27;;
11960;SDS011;6040;49.358;11.140;2023-01-10T08:51:20;6.60;;;2.47;;
11960;SDS011;6040;49.358;11.140;2023-01-10T08:53:47;8.57;;;2.50;;
11960;SDS011;6040;49.358;11.140;2023-01-10T08:56:14;5.40;;;2.43;;
11960;SDS011;6040;49.358;11.140;2023-01-10T08:58:40;3.50;;;2.60;;
11960;SDS011;6040;49.358;11.140;2023-01-10T09:01:09;4.80;;;2.77;;
11960;SDS011;6040;49.358;11.140;2023-01-10T09:03:37;4.40;;;2.57;;
11960;SDS011;6040;49.358;11.140;2023-01-10T09:06:05;5.23;;;2.67;;
11960;SDS011;6040;49.358;11.140;2023-01-10T09:08:32;6.93;;;2.70;;
11960;SDS011;6040;49.358;11.140;2023-01-10T09:11:00;5.17;;;2.40;;
11960;SDS011;6040;49.358;11.140;2023-01-10T09:13:27;6.80;;;2.50;;
11960;SDS011;6040;49.358;11.140;2023-01-10T09:15:55;5.40;;;2.70;;
11960;SDS011;6040;49.358;11.140;2023-01-10T09:18:24;4.70;;;2.63;;
11960;SDS011;6040;49.358;11.140;2023-01-10T09:20:51;6.40;;;2.73;;
11960;SDS011;6040;49.358;11.140;2023-01-10T09:23:19;5.70;;;2.73;;
11960;SDS011;6040;49.358;11.140;2023-01-10T09:25:49;4.90;;;2.53;;
11960;SDS011;6040;49.358;11.140;2023-01-10T09:28:17;8.50;;;3.37;;
11960;SDS011;6040;49.358;11.140;2023-01-10T09:30:45;5.00;;;2.97;;
11960;SDS011;6040;49.358;11.140;2023-01-10T09:33:12;7.17;;;3.30;;
11960;SDS011;6040;49.358;11.140;2023-01-10T09:35:41;5.93;;;3.07;;
11960;SDS011;6040;49.358;11.140;2023-01-10T09:38:09;5.57;;;2.87;;
11960;SDS011;6040;49.358;11.140;2023-01-10T09:40:42;8.17;;;3.47;;
11960;SDS011;6040;49.358;11.140;2023-01-10T09:43:21;5.63;;;2.73;;
11960;SDS011;6040;49.358;11.140;2023-01-10T09:45:55;4.30;;;2.80;;
11960;SDS011;6040;49.358;11.140;2023-01-10T09:48:31;4.60;;;2.43;;
11960;SDS011;6040;49.358;11.140;2023-01-10T09:51:11;6.07;;;2.70;;
11960;SDS011;6040;49.358;11.140;2023-01-10T09:53:47;10.73;;;2.90;;
11960;SDS011;6040;49.358;11.140;2023-01-10T09:56:16;10.63;;;2.73;;
11960;SDS011;6040;49.358;11.140;2023-01-10T09:58:44;6.93;;;2.90;;
11960;SDS011;6040;49.358;11.140;2023-01-10T10:01:14;3.57;;;2.47;;
11960;SDS011;6040;49.358;11.140;2023-01-10T10:03:45;6.37;;;2.87;;
11960;SDS011;6040;49.358;11.140;2023-01-10T10:06:21;8.40;;;3.00;;
11960;SDS011;6040;49.358;11.140;2023-01-10T10:08:48;5.60;;;2.53;;
11960;SDS011;6040;49.358;11.140;2023-01-10T10:11:33;5.33;;;2.87;;
11960;SDS011;6040;49.358;11.140;2023-01-10T10:14:10;3.77;;;2.50;;
11960;SDS011;6040;49.358;11.140;2023-01-10T10:16:52;4.63;;;2.70;;
11960;SDS011;6040;49.358;11.140;2023-01-10T10:19:29;4.17;;;2.77;;
11960;SDS011;6040;49.358;11.140;2023-01-10T10:22:07;8.83;;;3.13;;
11960;SDS011;6040;49.358;11.140;2023-01-10T10:24:46;5.93;;;2.87;;
11960;SDS011;6040;49.358;11.140;2023-01-10T10:27:28;6.77;;;3.03;;
11960;SDS011;6040;49.358;11.140;2023-01-10T10:30:11;7.23;;;2.83;;
11960;SDS011;6040;49.358;11.140;2023-01-10T10:32:59;4.67;;;2.40;;
11960;SDS011;6040;49.358;11.140;2023-01-10T10:35:39;8.73;;;3.13;;
11960;SDS011;6040;49.358;11.140;2023-01-10T10:38:12;8.53;;;2.73;;
11960;SDS011;6040;49.358;11.140;2023-01-10T10:40:43;7.03;;;3.13;;
11960;SDS011;6040;49.358;11.140;2023-01-10T10:43:15;5.10;;;2.50;;
11960;SDS011;6040;49.358;11.140;2023-01-10T10:45:46;7.50;;;3.00;;
11960;SDS011;6040;49.358;11.140;2023-01-10T10:48:18;5.17;;;2.13;;
11960;SDS011;6040;49.358;11.140;2023-01-10T10:50:50;7.50;;;2.77;;
11960;SDS011;6040;49.358;11.140;2023-01-10T10:53:26;10.40;;;2.60;;
11960;SDS011;6040;49.358;11.140;2023-01-10T10:55:53;11.53;;;3.20;;
11960;SDS011;6040;49.358;11.140;2023-01-10T10:58:20;7.13;;;2.70;;
11960;SDS011;6040;49.358;11.140;2023-01-10T11:00:47;5.10;;;2.77;;
11960;SDS011;6040;49.358;11.140;2023-01-10T11:03:19;6.53;;;2.67;;
11960;SDS011;6040;49.358;11.140;2023-01-10T11:05:54;7.00;;;3.10;;
11960;SDS011;6040;49.358;11.140;2023-01-10T11:08:22;5.80;;;2.40;;
11960;SDS011;6040;49.358;11.140;2023-01-10T11:10:51;6.30;;;2.83;;
11960;SDS011;6040;49.358;11.140;2023-01-10T11:13:24;6.47;;;2.77;;
11960;SDS011;6040;49.358;11.140;2023-01-10T11:16:00;6.20;;;2.80;;
11960;SDS011;6040;49.358;11.140;2023-01-10T11:18:29;9.27;;;3.10;;
11960;SDS011;6040;49.358;11.140;2023-01-10T11:20:58;6.93;;;2.93;;
11960;SDS011;6040;49.358;11.140;2023-01-10T11:23:30;4.33;;;2.60;;
11960;SDS011;6040;49.358;11.140;2023-01-10T11:26:04;9.80;;;3.03;;
11960;SDS011;6040;49.358;11.140;2023-01-10T11:28:33;8.50;;;2.80;;
11960;SDS011;6040;49.358;11.140;2023-01-10T11:31:02;7.77;;;3.10;;
11960;SDS011;6040;49.358;11.140;2023-01-10T11:33:30;8.73;;;2.43;;
11960;SDS011;6040;49.358;11.140;2023-01-10T11:36:00;7.97;;;2.53;;
11960;SDS011;6040;49.358;11.140;2023-01-10T11:38:28;6.10;;;1.90;;
11960;SDS011;6040;49.358;11.140;2023-01-10T11:40:56;6.57;;;1.97;;
11960;SDS011;6040;49.358;11.140;2023-01-10T11:43:27;8.57;;;2.37;;
11960;SDS011;6040;49.358;11.140;2023-01-10T11:45:58;9.13;;;2.40;;
11960;SDS011;6040;49.358;11.140;2023-01-10T11:48:31;8.80;;;2.63;;
11960;SDS011;6040;49.358;11.140;2023-01-10T11:51:13;7.03;;;2.00;;
11960;SDS011;6040;49.358;11.140;2023-01-10T11:53:44;8.60;;;2.70;;
11960;SDS011;6040;49.358;11.140;2023-01-10T11:56:13;8.60;;;2.40;;
11960;SDS011;6040;49.358;11.140;2023-01-10T11:58:50;6.63;;;2.30;;
11960;SDS011;6040;49.358;11.140;2023-01-10T12:01:25;7.70;;;2.20;;
11960;SDS011;6040;49.358;11.140;2023-01-10T12:03:55;7.27;;;2.60;;
11960;SDS011;6040;49.358;11.140;2023-01-10T12:06:23;5.23;;;2.20;;
11960;SDS011;6040;49.358;11.140;2023-01-10T12:08:51;6.53;;;2.30;;
11960;SDS011;6040;49.358;11.140;2023-01-10T12:11:25;3.00;;;2.07;;
11960;SDS011;6040;49.358;11.140;2023-01-10T12:13:56;3.43;;;1.73;;
11960;SDS011;6040;49.358;11.140;2023-01-10T12:16:25;9.47;;;2.37;;
11960;SDS011;6040;49.358;11.140;2023-01-10T12:18:54;9.83;;;2.33;;
11960;SDS011;6040;49.358;11.140;2023-01-10T12:21:25;4.53;;;2.17;;
11960;SDS011;6040;49.358;11.140;2023-01-10T12:23:56;8.37;;;2.50;;
11960;SDS011;6040;49.358;11.140;2023-01-10T12:26:26;5.70;;;2.43;;
11960;SDS011;6040;49.358;11.140;2023-01-10T12:28:58;7.97;;;2.47;;
11960;SDS011;6040;49.358;11.140;2023-01-10T12:31:30;8.80;;;2.27;;
11960;SDS011;6040;49.358;11.140;2023-01-10T12:34:00;6.83;;;2.63;;
11960;SDS011;6040;49.358;11.140;2023-01-10T12:36:36;6.63;;;2.07;;
11960;SDS011;6040;49.358;11.140;2023-01-10T12:39:12;5.53;;;2.10;;
11960;SDS011;6040;49.358;11.140;2023-01-10T12:41:44;10.00;;;2.40;;
11960;SDS011;6040;49.358;11.140;2023-01-10T12:44:35;4.50;;;2.00;;
11960;SDS011;6040;49.358;11.140;2023-01-10T12:47:08;6.57;;;2.27;;
11960;SDS011;6040;49.358;11.140;2023-01-10T12:49:43;11.33;;;3.03;;
11960;SDS011;6040;49.358;11.140;2023-01-10T12:52:16;11.13;;;3.37;;
11960;SDS011;6040;49.358;11.140;2023-01-10T12:55:05;9.50;;;2.70;;
11960;SDS011;6040;49.358;11.140;2023-01-10T12:57:34;6.67;;;2.60;;
11960;SDS011;6040;49.358;11.140;2023-01-10T13:00:06;7.03;;;2.40;;
11960;SDS011;6040;49.358;11.140;2023-01-10T13:02:42;5.70;;;2.50;;
11960;SDS011;6040;49.358;11.140;2023-01-10T13:05:14;7.30;;;2.20;;
11960;SDS011;6040;49.358;11.140;2023-01-10T13:07:43;6.10;;;2.00;;
11960;SDS011;6040;49.358;11.140;2023-01-10T13:10:13;7.70;;;2.40;;
11960;SDS011;6040;49.358;11.140;2023-01-10T13:12:43;6.90;;;2.50;;
11960;SDS011;6040;49.358;11.140;2023-01-10T13:15:18;5.83;;;2.40;;
11960;SDS011;6040;49.358;11.140;2023-01-10T13:17:49;7.97;;;2.60;;
11960;SDS011;6040;49.358;11.140;2023-01-10T13:20:26;5.93;;;2.20;;
11960;SDS011;6040;49.358;11.140;2023-01-10T13:25:56;5.63;;;2.20;;
11960;SDS011;6040;49.358;11.140;2023-01-10T13:28:29;5.30;;;2.53;;
11960;SDS011;6040;49.358;11.140;2023-01-10T13:31:00;8.00;;;2.33;;
11960;SDS011;6040;49.358;11.140;2023-01-10T13:33:30;7.07;;;2.37;;
11960;SDS011;6040;49.358;11.140;2023-01-10T13:36:05;11.47;;;2.83;;
11960;SDS011;6040;49.358;11.140;2023-01-10T13:38:46;8.70;;;2.00;;
11960;SDS011;6040;49.358;11.140;2023-01-10T13:41:15;6.93;;;2.27;;
11960;SDS011;6040;49.358;11.140;2023-01-10T13:44:02;7.43;;;2.17;;
11960;SDS011;6040;49.358;11.140;2023-01-10T14:01:24;7.13;;;2.10;;
11960;SDS011;6040;49.358;11.140;2023-01-10T14:04:18;4.73;;;1.77;;
11960;SDS011;6040;49.358;11.140;2023-01-10T14:06:50;6.50;;;1.83;;
11960;SDS011;6040;49.358;11.140;2023-01-10T14:12:19;8.00;;;1.87;;
11960;SDS011;6040;49.358;11.140;2023-01-10T14:14:50;7.87;;;1.90;;
11960;SDS011;6040;49.358;11.140;2023-01-10T14:17:20;4.53;;;2.00;;
11960;SDS011;6040;49.358;11.140;2023-01-10T14:19:58;4.50;;;1.90;;
11960;SDS011;6040;49.358;11.140;2023-01-10T14:22:28;5.63;;;1.90;;
11960;SDS011;6040;49.358;11.140;2023-01-10T14:24:57;5.20;;;2.20;;
11960;SDS011;6040;49.358;11.140;2023-01-10T14:27:26;5.07;;;1.60;;
11960;SDS011;6040;49.358;11.140;2023-01-10T14:29:59;7.47;;;1.87;;
11960;SDS011;6040;49.358;11.140;2023-01-10T14:32:30;4.93;;;1.73;;
11960;SDS011;6040;49.358;11.140;2023-01-10T14:35:04;5.53;;;2.33;;
11960;SDS011;6040;49.358;11.140;2023-01-10T14:37:36;5.63;;;1.67;;
11960;SDS011;6040;49.358;11.140;2023-01-10T14:40:09;5.63;;;1.90;;
11960;SDS011;6040;49.358;11.140;2023-01-10T14:42:50;5.03;;;1.83;;
11960;SDS011;6040;49.358;11.140;2023-01-10T14:45:24;7.73;;;1.93;;
11960;SDS011;6040;49.358;11.140;2023-01-10T14:47:56;7.67;;;2.73;;
11960;SDS011;6040;49.358;11.140;2023-01-10T14:50:25;10.27;;;2.70;;
11960;SDS011;6040;49.358;11.140;2023-01-10T14:52:54;28.33;;;10.87;;
11960;SDS011;6040;49.358;11.140;2023-01-10T14:55:21;9.03;;;3.77;;
11960;SDS011;6040;49.358;11.140;2023-01-10T14:57:51;6.50;;;2.70;;
11960;SDS011;6040;49.358;11.140;2023-01-10T15:00:23;3.60;;;1.80;;
11960;SDS011;6040;49.358;11.140;2023-01-10T15:02:52;10.33;;;4.13;;
11960;SDS011;6040;49.358;11.140;2023-01-10T15:05:20;9.93;;;3.80;;
11960;SDS011;6040;49.358;11.140;2023-01-10T15:07:50;7.07;;;2.83;;
11960;SDS011;6040;49.358;11.140;2023-01-10T15:10:20;8.00;;;2.30;;
11960;SDS011;6040;49.358;11.140;2023-01-10T15:12:49;6.77;;;2.23;;
11960;SDS011;6040;49.358;11.140;2023-01-10T15:15:19;5.17;;;2.20;;
11960;SDS011;6040;49.358;11.140;2023-01-10T15:17:52;7.07;;;2.10;;
11960;SDS011;6040;49.358;11.140;2023-01-10T15:20:19;4.03;;;1.97;;
11960;SDS011;6040;49.358;11.140;2023-01-10T15:22:47;5.27;;;2.20;;
11960;SDS011;6040;49.358;11.140;2023-01-10T15:25:27;5.10;;;1.70;;
11960;SDS011;6040;49.358;11.140;2023-01-10T15:27:57;5.37;;;2.00;;
11960;SDS011;6040;49.358;11.140;2023-01-10T15:30:27;5.43;;;1.77;;
11960;SDS011;6040;49.358;11.140;2023-01-10T15:32:56;5.10;;;1.77;;